createdAt,value
2023-01-30T00:00:16.508Z,69.15
2023-01-30T00:01:21.881Z,69.46
2023-01-30T00:02:29.780Z,68.97
2023-01-30T00:03:33.264Z,68.78
2023-01-30T00:04:36.673Z,68.29
2023-01-30T00:05:39.452Z,67.89
2023-01-30T00:06:42.013Z,68.01
2023-01-30T00:07:47.644Z,67.54
2023-01-30T00:08:51.668Z,67.85
2023-01-30T00:09:55.231Z,67.76
2023-01-30T00:10:58.539Z,68.04
2023-01-30T00:12:01.751Z,68.67
2023-01-30T00:13:04.051Z,68.96
2023-01-30T00:14:08.469Z,69.90
2023-01-30T00:15:12.044Z,70.04
2023-01-30T00:16:16.617Z,69.20
2023-01-30T00:17:18.839Z,68.67
2023-01-30T00:18:22.017Z,69.17
2023-01-30T00:19:25.326Z,68.18
2023-01-30T00:20:28.832Z,67.70
2023-01-30T00:21:32.339Z,67.59
2023-01-30T00:22:38.245Z,68.17
2023-01-30T00:23:42.061Z,68.36
2023-01-30T00:24:45.407Z,68.06
2023-01-30T00:25:47.917Z,67.87
2023-01-30T00:26:51.642Z,67.77
2023-01-30T00:27:56.190Z,68.47
2023-01-30T00:29:01.989Z,68.33
2023-01-30T00:30:10.056Z,69.09
2023-01-30T00:31:15.993Z,68.84
2023-01-30T00:32:20.193Z,69.30
2023-01-30T00:33:26.570Z,69.29
2023-01-30T00:34:30.263Z,69.43
2023-01-30T00:35:35.552Z,70.14
2023-01-30T00:36:38.882Z,70.16
2023-01-30T00:37:43.590Z,69.90
2023-01-30T00:38:48.736Z,70.12
2023-01-30T00:39:56.156Z,70.01
2023-01-30T00:40:59.576Z,69.48
2023-01-30T00:42:21.213Z,69.26
2023-01-30T00:43:43.583Z,69.49
2023-01-30T00:45:03.957Z,69.74
2023-01-30T00:46:27.837Z,69.52
2023-01-30T00:47:31.529Z,69.41
2023-01-30T00:48:36.135Z,69.49
2023-01-30T00:49:40.858Z,69.53
2023-01-30T00:50:45.408Z,69.56
2023-01-30T00:51:48.795Z,69.29
2023-01-30T00:52:52.210Z,69.91
2023-01-30T00:53:55.705Z,70.68
2023-01-30T00:54:58.829Z,70.49
2023-01-30T00:56:04.106Z,70.80
2023-01-30T00:57:08.527Z,70.41
2023-01-30T00:58:11.835Z,70.87
2023-01-30T00:59:14.502Z,70.87
2023-01-30T01:00:18.937Z,70.45
2023-01-30T01:01:22.549Z,70.26
2023-01-30T01:02:26.473Z,70.47
2023-01-30T01:03:29.141Z,70.18
2023-01-30T01:04:33.899Z,70.00
2023-01-30T01:05:37.408Z,70.25
2023-01-30T01:06:40.179Z,70.35
2023-01-30T01:07:42.532Z,69.69
2023-01-30T01:08:45.888Z,70.05
2023-01-30T01:09:50.276Z,70.04
2023-01-30T01:10:53.145Z,70.64
2023-01-30T01:11:58.534Z,71.11
2023-01-30T01:13:02.042Z,71.23
2023-01-30T01:14:07.126Z,71.56
2023-01-30T01:15:10.933Z,72.40
2023-01-30T01:16:14.334Z,73.29
2023-01-30T01:17:17.734Z,72.94
2023-01-30T01:18:22.095Z,73.00
2023-01-30T01:19:25.474Z,73.21
2023-01-30T01:20:28.861Z,72.58
2023-01-30T01:21:32.516Z,72.61
2023-01-30T01:22:37.439Z,72.27
2023-01-30T01:23:39.692Z,72.43
2023-01-30T01:24:43.091Z,72.38
2023-01-30T01:25:46.614Z,71.95
2023-01-30T01:26:52.364Z,71.76
2023-01-30T01:28:01.972Z,71.90
2023-01-30T01:29:05.049Z,71.54
2023-01-30T01:30:10.256Z,71.95
2023-01-30T01:31:14.483Z,71.35
2023-01-30T01:32:17.978Z,71.58
2023-01-30T01:33:23.382Z,71.73
2023-01-30T01:34:26.971Z,71.63
2023-01-30T01:35:29.222Z,71.65
2023-01-30T01:37:02.457Z,71.68
2023-01-30T01:37:39.268Z,72.16
2023-01-30T01:38:44.124Z,72.23
2023-01-30T01:40:07.371Z,71.51
2023-01-30T01:41:12.472Z,71.61
2023-01-30T01:42:16.160Z,71.43
2023-01-30T01:43:25.374Z,71.38
2023-01-30T01:44:27.871Z,71.87
2023-01-30T01:45:30.956Z,71.26
2023-01-30T01:46:38.418Z,71.81
2023-01-30T01:47:42.558Z,71.54
2023-01-30T01:48:47.665Z,71.85
2023-01-30T01:49:51.083Z,71.47
2023-01-30T01:50:56.317Z,71.48
2023-01-30T01:52:03.593Z,71.91
2023-01-30T01:53:07.605Z,71.83
2023-01-30T01:54:11.835Z,71.92
2023-01-30T01:55:18.026Z,72.59
2023-01-30T01:56:21.775Z,72.78
2023-01-30T01:57:26.957Z,73.28
2023-01-30T01:58:34.430Z,73.18
2023-01-30T01:59:44.551Z,73.06
2023-01-30T02:00:49.142Z,72.83
2023-01-30T02:01:53.182Z,73.99
2023-01-30T02:02:57.729Z,73.53
2023-01-30T02:04:01.905Z,73.16
2023-01-30T02:05:06.253Z,73.66
2023-01-30T02:06:13.582Z,73.68
2023-01-30T02:07:19.910Z,73.66
2023-01-30T02:08:26.128Z,73.85
2023-01-30T02:09:29.654Z,73.26
2023-01-30T02:10:37.423Z,73.32
2023-01-30T02:11:46.674Z,73.55
2023-01-30T02:12:51.534Z,73.68
2023-01-30T02:13:57.577Z,73.70
2023-01-30T02:15:01.367Z,73.80
2023-01-30T02:16:05.887Z,73.86
2023-01-30T02:17:09.421Z,74.11
2023-01-30T02:18:16.688Z,74.12
2023-01-30T02:19:39.407Z,74.06
2023-01-30T02:20:50.119Z,75.06
2023-01-30T02:23:21.674Z,73.76
2023-01-30T02:24:43.969Z,74.35
2023-01-30T02:26:04.525Z,75.21
2023-01-30T02:27:25.881Z,75.54
2023-01-30T02:28:47.644Z,75.13
2023-01-30T02:29:52.413Z,74.70
2023-01-30T02:31:06.874Z,74.58
2023-01-30T02:32:28.465Z,74.27
2023-01-30T02:33:34.089Z,74.55
2023-01-30T02:34:50.863Z,74.50
2023-01-30T02:35:56.281Z,74.76
2023-01-30T02:37:03.377Z,75.45
2023-01-30T02:38:11.882Z,75.03
2023-01-30T02:39:21.875Z,75.22
2023-01-30T02:40:28.408Z,74.77
2023-01-30T02:41:51.757Z,74.99
2023-01-30T02:43:02.051Z,75.06
2023-01-30T02:44:13.807Z,74.73
2023-01-30T02:45:19.141Z,74.83
2023-01-30T02:46:24.811Z,74.96
2023-01-30T02:47:33.820Z,74.86
2023-01-30T02:48:42.246Z,74.40
2023-01-30T02:49:48.468Z,74.77
2023-01-30T02:50:54.895Z,74.94
2023-01-30T02:52:00.529Z,74.77
2023-01-30T02:53:06.384Z,74.72
2023-01-30T02:54:12.929Z,74.34
2023-01-30T02:55:27.400Z,74.62
2023-01-30T02:56:30.401Z,74.36
2023-01-30T02:57:36.705Z,74.77
2023-01-30T02:58:43.449Z,74.70
2023-01-30T02:59:49.775Z,74.55
2023-01-30T03:00:55.378Z,74.55
2023-01-30T03:02:00.011Z,74.85
2023-01-30T03:03:10.212Z,74.86
2023-01-30T03:04:18.727Z,75.05
2023-01-30T03:05:28.006Z,74.63
2023-01-30T03:06:51.751Z,75.51
2023-01-30T03:07:56.896Z,75.51
2023-01-30T03:09:12.851Z,75.54
2023-01-30T03:10:24.201Z,75.51
2023-01-30T03:11:32.217Z,75.08
2023-01-30T03:12:43.825Z,75.55
2023-01-30T03:13:58.518Z,75.73
2023-01-30T03:15:05.797Z,75.21
2023-01-30T03:16:11.730Z,75.04
2023-01-30T03:17:17.298Z,74.80
2023-01-30T03:18:20.476Z,74.88
2023-01-30T03:19:24.407Z,75.70
2023-01-30T03:20:28.744Z,76.06
2023-01-30T03:21:32.364Z,75.55
2023-01-30T03:22:40.111Z,74.79
2023-01-30T03:23:44.604Z,74.15
2023-01-30T03:24:48.817Z,74.47
2023-01-30T03:25:52.216Z,74.75
2023-01-30T03:26:56.773Z,74.65
2023-01-30T03:28:02.731Z,74.42
2023-01-30T03:29:06.822Z,74.52
2023-01-30T03:30:11.050Z,74.62
2023-01-30T03:31:14.786Z,74.26
2023-01-30T03:32:20.986Z,74.04
2023-01-30T03:33:25.693Z,74.61
2023-01-30T03:34:31.771Z,74.32
2023-01-30T03:35:35.959Z,74.16
2023-01-30T03:36:39.279Z,74.36
2023-01-30T03:37:41.746Z,73.72
2023-01-30T03:38:45.155Z,74.11
2023-01-30T03:39:48.653Z,73.81
2023-01-30T03:40:52.932Z,73.28
2023-01-30T03:41:58.909Z,73.00
2023-01-30T03:43:05.985Z,73.34
2023-01-30T03:44:09.878Z,73.11
2023-01-30T03:45:15.202Z,73.24
2023-01-30T03:46:19.462Z,73.20
2023-01-30T03:47:23.215Z,73.72
2023-01-30T03:48:27.557Z,73.88
2023-01-30T03:49:31.168Z,73.81
2023-01-30T03:50:35.831Z,73.97
2023-01-30T03:51:40.683Z,74.08
2023-01-30T03:52:43.872Z,74.96
2023-01-30T03:53:49.056Z,74.92
2023-01-30T03:54:52.286Z,74.98
2023-01-30T03:55:56.195Z,73.63
2023-01-30T03:57:01.253Z,73.29
2023-01-30T03:58:05.054Z,73.61
2023-01-30T03:59:10.199Z,73.72
2023-01-30T04:00:16.235Z,73.55
2023-01-30T04:01:22.469Z,73.66
2023-01-30T04:02:26.875Z,74.33
2023-01-30T04:03:30.220Z,74.19
2023-01-30T04:04:36.325Z,74.71
2023-01-30T04:05:42.227Z,74.44
2023-01-30T04:06:45.340Z,74.54
2023-01-30T04:07:49.656Z,74.70
2023-01-30T04:08:54.244Z,74.68
2023-01-30T04:09:59.596Z,74.78
2023-01-30T04:11:03.067Z,74.02
2023-01-30T04:12:07.228Z,74.05
2023-01-30T04:13:12.336Z,74.05
2023-01-30T04:14:15.407Z,74.24
2023-01-30T04:15:32.143Z,74.15
2023-01-30T04:16:49.774Z,74.14
2023-01-30T04:18:13.025Z,74.16
2023-01-30T04:19:33.424Z,74.46
2023-01-30T04:20:37.046Z,74.39
2023-01-30T04:21:40.643Z,74.82
2023-01-30T04:22:43.853Z,74.98
2023-01-30T04:23:48.190Z,74.64
2023-01-30T04:24:52.614Z,74.17
2023-01-30T04:25:56.944Z,74.37
2023-01-30T04:27:00.358Z,74.40
2023-01-30T04:28:05.151Z,75.02
2023-01-30T04:29:10.408Z,73.83
2023-01-30T04:30:14.539Z,74.11
2023-01-30T04:31:18.399Z,73.49
2023-01-30T04:32:36.499Z,74.26
2023-01-30T04:33:39.786Z,73.51
2023-01-30T04:34:45.514Z,73.41
2023-01-30T04:35:59.138Z,73.19
2023-01-30T04:37:01.986Z,72.30
2023-01-30T04:38:05.087Z,72.33
2023-01-30T04:39:08.405Z,72.52
2023-01-30T04:40:12.955Z,72.97
2023-01-30T04:41:16.329Z,72.68
2023-01-30T04:42:20.898Z,73.24
2023-01-30T04:43:26.607Z,73.98
2023-01-30T04:44:45.755Z,73.88
2023-01-30T04:45:52.976Z,73.81
2023-01-30T04:46:56.519Z,73.42
2023-01-30T04:48:00.781Z,73.62
2023-01-30T04:49:04.040Z,73.79
2023-01-30T04:50:08.290Z,74.31
2023-01-30T04:51:11.262Z,74.48
2023-01-30T04:52:14.671Z,73.98
2023-01-30T04:53:19.117Z,73.51
2023-01-30T04:54:22.923Z,74.42
2023-01-30T04:55:26.146Z,74.59
2023-01-30T04:56:29.359Z,74.97
2023-01-30T04:57:31.710Z,74.61
2023-01-30T04:58:35.840Z,75.65
2023-01-30T04:59:39.418Z,75.20
2023-01-30T05:00:43.348Z,75.33
2023-01-30T05:01:45.720Z,74.71
2023-01-30T05:02:49.721Z,74.57
2023-01-30T05:03:54.159Z,74.70
2023-01-30T05:04:56.836Z,74.82
2023-01-30T05:06:00.234Z,75.33
2023-01-30T05:07:02.491Z,75.32
2023-01-30T05:08:06.420Z,75.01
2023-01-30T05:09:10.370Z,74.71
2023-01-30T05:10:13.314Z,75.08
2023-01-30T05:11:16.935Z,75.22
2023-01-30T05:12:20.638Z,75.20
2023-01-30T05:13:25.199Z,75.44
2023-01-30T05:14:28.798Z,75.27
2023-01-30T05:15:32.262Z,74.93
2023-01-30T05:16:34.764Z,75.10
2023-01-30T05:17:38.164Z,76.36
2023-01-30T05:18:41.982Z,75.52
2023-01-30T05:19:45.201Z,75.90
2023-01-30T05:20:48.679Z,75.70
2023-01-30T05:21:52.600Z,75.47
2023-01-30T05:22:54.956Z,74.84
2023-01-30T05:23:59.392Z,74.62
2023-01-30T05:25:01.642Z,74.26
2023-01-30T05:26:04.531Z,74.34
2023-01-30T05:27:11.093Z,74.59
2023-01-30T05:28:14.887Z,74.82
2023-01-30T05:29:20.159Z,75.10
2023-01-30T05:30:24.270Z,75.91
2023-01-30T05:31:26.646Z,75.94
2023-01-30T05:32:30.267Z,75.71
2023-01-30T05:33:34.755Z,75.82
2023-01-30T05:34:38.218Z,76.05
2023-01-30T05:35:47.563Z,76.42
2023-01-30T05:36:54.551Z,76.37
2023-01-30T05:37:59.487Z,75.74
2023-01-30T05:39:02.067Z,75.44
2023-01-30T05:40:06.748Z,76.50
2023-01-30T05:41:12.292Z,76.58
2023-01-30T05:42:15.593Z,76.23
2023-01-30T05:43:18.994Z,76.07
2023-01-30T05:44:22.813Z,76.15
2023-01-30T05:45:26.531Z,76.68
2023-01-30T05:46:30.198Z,76.90
2023-01-30T05:47:33.743Z,76.77
2023-01-30T05:48:37.275Z,76.72
2023-01-30T05:49:40.596Z,76.83
2023-01-30T05:50:44.367Z,76.63
2023-01-30T05:51:49.387Z,77.24
2023-01-30T05:52:53.259Z,77.16
2023-01-30T05:53:57.073Z,76.93
2023-01-30T05:54:59.842Z,76.38
2023-01-30T05:56:03.770Z,75.95
2023-01-30T05:57:07.162Z,76.27
2023-01-30T05:58:09.765Z,77.13
2023-01-30T05:59:13.447Z,76.98
2023-01-30T06:00:17.267Z,77.56
2023-01-30T06:01:20.939Z,76.57
2023-01-30T06:02:23.582Z,76.94
2023-01-30T06:03:26.864Z,76.89
2023-01-30T06:04:29.095Z,76.98
2023-01-30T06:05:31.454Z,76.96
2023-01-30T06:06:36.211Z,76.45
2023-01-30T06:07:39.806Z,76.42
2023-01-30T06:08:42.172Z,76.74
2023-01-30T06:09:47.454Z,76.39
2023-01-30T06:10:52.189Z,75.68
2023-01-30T06:11:57.164Z,77.44
2023-01-30T06:13:01.208Z,77.93
2023-01-30T06:14:04.326Z,77.97
2023-01-30T06:15:08.146Z,77.79
2023-01-30T06:16:13.176Z,77.97
2023-01-30T06:17:17.003Z,77.53
2023-01-30T06:18:22.605Z,77.19
2023-01-30T06:19:29.542Z,77.42
2023-01-30T06:20:32.966Z,77.42
2023-01-30T06:21:35.839Z,76.93
2023-01-30T06:22:40.061Z,77.08
2023-01-30T06:24:04.145Z,76.84
2023-01-30T06:25:06.700Z,76.99
2023-01-30T06:26:10.444Z,76.66
2023-01-30T06:27:15.181Z,76.88
2023-01-30T06:28:18.679Z,76.13
2023-01-30T06:29:22.087Z,75.89
2023-01-30T06:30:25.242Z,76.51
2023-01-30T06:31:27.545Z,76.23
2023-01-30T06:32:31.169Z,76.21
2023-01-30T06:33:35.674Z,77.01
2023-01-30T06:34:41.027Z,77.11
2023-01-30T06:35:44.291Z,76.86
2023-01-30T06:36:47.759Z,77.16
2023-01-30T06:37:50.953Z,77.32
2023-01-30T06:38:55.225Z,76.73
2023-01-30T06:39:58.183Z,76.66
2023-01-30T06:41:00.452Z,77.00
2023-01-30T06:42:03.938Z,76.64
2023-01-30T06:43:08.068Z,76.37
2023-01-30T06:44:11.567Z,76.08
2023-01-30T06:45:15.394Z,76.21
2023-01-30T06:46:19.130Z,76.62
2023-01-30T06:47:23.236Z,76.95
2023-01-30T06:48:26.100Z,77.22
2023-01-30T06:49:29.413Z,77.78
2023-01-30T06:50:33.967Z,77.01
2023-01-30T06:51:37.199Z,76.58
2023-01-30T06:52:44.017Z,76.79
2023-01-30T06:53:47.593Z,76.46
2023-01-30T06:54:51.011Z,76.62
2023-01-30T06:55:53.591Z,76.24
2023-01-30T06:56:56.749Z,76.62
2023-01-30T06:58:08.312Z,78.44
2023-01-30T06:59:13.909Z,78.78
2023-01-30T07:00:19.951Z,78.80
2023-01-30T07:01:23.549Z,77.87
2023-01-30T07:02:29.569Z,77.46
2023-01-30T07:03:36.903Z,76.97
2023-01-30T07:04:43.342Z,77.02
2023-01-30T07:05:49.677Z,77.16
2023-01-30T07:06:52.847Z,76.82
2023-01-30T07:07:55.537Z,77.09
2023-01-30T07:08:59.154Z,77.57
2023-01-30T07:10:08.262Z,77.68
2023-01-30T07:11:08.131Z,77.58
2023-01-30T07:12:11.531Z,77.69
2023-01-30T07:13:16.559Z,77.75
2023-01-30T07:14:22.439Z,77.42
2023-01-30T07:15:25.601Z,78.15
2023-01-30T07:16:29.986Z,78.97
2023-01-30T07:17:33.240Z,78.58
2023-01-30T07:18:37.543Z,79.12
2023-01-30T07:19:41.185Z,79.50
2023-01-30T07:20:47.299Z,78.50
2023-01-30T07:21:51.137Z,79.26
2023-01-30T07:22:56.431Z,79.42
2023-01-30T07:24:00.530Z,78.23
2023-01-30T07:25:04.463Z,78.13
2023-01-30T07:26:09.991Z,78.00
2023-01-30T07:27:13.658Z,78.57
2023-01-30T07:28:16.945Z,78.06
2023-01-30T07:29:20.458Z,77.56
2023-01-30T07:30:22.829Z,77.37
2023-01-30T07:31:26.468Z,77.14
2023-01-30T07:32:30.783Z,77.44
2023-01-30T07:33:33.005Z,77.51
2023-01-30T07:34:36.313Z,77.33
2023-01-30T07:35:38.780Z,78.18
2023-01-30T07:36:42.177Z,78.11
2023-01-30T07:37:46.201Z,79.07
2023-01-30T07:38:50.541Z,79.71
2023-01-30T07:39:53.830Z,79.57
2023-01-30T07:40:57.261Z,80.41
2023-01-30T07:42:03.919Z,80.64
2023-01-30T07:43:08.624Z,79.25
2023-01-30T07:44:13.371Z,78.06
2023-01-30T07:45:16.342Z,78.73
2023-01-30T07:46:20.920Z,79.89
2023-01-30T07:47:26.063Z,79.99
2023-01-30T07:48:29.219Z,80.51
2023-01-30T07:49:36.277Z,80.07
2023-01-30T07:50:39.431Z,79.97
2023-01-30T07:51:46.493Z,79.97
2023-01-30T07:52:50.218Z,79.17
2023-01-30T07:53:53.349Z,80.69
2023-01-30T07:55:00.034Z,80.81
2023-01-30T07:56:14.672Z,80.33
2023-01-30T07:57:18.877Z,80.21
2023-01-30T07:58:22.356Z,79.97
2023-01-30T07:59:25.866Z,80.91
2023-01-30T08:00:29.264Z,80.30
2023-01-30T08:01:34.624Z,81.24
2023-01-30T08:02:38.765Z,81.14
2023-01-30T08:03:45.181Z,81.68
2023-01-30T08:04:48.863Z,81.67
2023-01-30T08:05:53.579Z,81.04
2023-01-30T08:06:58.021Z,80.89
2023-01-30T08:08:01.366Z,80.50
2023-01-30T08:09:04.090Z,81.50
2023-01-30T08:10:09.326Z,81.25
2023-01-30T08:11:12.771Z,80.96
2023-01-30T08:12:16.893Z,81.31
2023-01-30T08:13:20.091Z,80.40
2023-01-30T08:14:24.675Z,80.74
2023-01-30T08:15:27.939Z,80.68
2023-01-30T08:16:34.479Z,79.88
2023-01-30T08:17:37.979Z,80.06
2023-01-30T08:18:41.367Z,80.25
2023-01-30T08:19:44.679Z,81.32
2023-01-30T08:20:48.076Z,82.11
2023-01-30T08:21:54.294Z,81.85
2023-01-30T08:22:59.054Z,82.68
2023-01-30T08:24:07.574Z,82.54
2023-01-30T08:25:11.724Z,82.22
2023-01-30T08:26:16.641Z,82.43
2023-01-30T08:27:20.095Z,81.76
2023-01-30T08:28:23.785Z,81.92
2023-01-30T08:29:26.339Z,81.63
2023-01-30T08:30:31.066Z,81.75
2023-01-30T08:31:34.751Z,80.88
2023-01-30T08:32:37.795Z,79.53
2023-01-30T08:33:42.460Z,79.71
2023-01-30T08:34:45.658Z,78.91
2023-01-30T08:35:48.112Z,78.90
2023-01-30T08:36:51.098Z,78.72
2023-01-30T08:37:53.358Z,78.23
2023-01-30T08:38:57.573Z,77.79
2023-01-30T08:40:04.093Z,77.50
2023-01-30T08:41:08.657Z,77.69
2023-01-30T08:42:12.388Z,78.21
2023-01-30T08:43:17.273Z,78.61
2023-01-30T08:44:19.598Z,78.22
2023-01-30T08:45:22.906Z,80.08
2023-01-30T08:46:29.023Z,79.01
2023-01-30T08:47:33.595Z,78.57
2023-01-30T08:48:49.486Z,79.02
2023-01-30T08:49:46.113Z,80.12
2023-01-30T08:50:51.490Z,80.65
2023-01-30T08:51:54.925Z,80.19
2023-01-30T08:52:58.606Z,79.83
2023-01-30T08:54:03.466Z,80.39
2023-01-30T08:55:07.294Z,80.33
2023-01-30T08:56:10.997Z,80.12
2023-01-30T08:57:14.714Z,80.58
2023-01-30T08:58:17.819Z,80.39
2023-01-30T08:59:23.080Z,80.72
2023-01-30T09:00:29.368Z,80.70
2023-01-30T09:01:32.734Z,79.40
2023-01-30T09:02:36.864Z,79.70
2023-01-30T09:03:40.648Z,80.26
2023-01-30T09:04:43.011Z,80.73
2023-01-30T09:05:46.864Z,79.55
2023-01-30T09:06:49.601Z,79.08
2023-01-30T09:07:53.763Z,78.46
2023-01-30T09:08:57.065Z,78.47
2023-01-30T09:10:00.960Z,79.42
2023-01-30T09:11:05.510Z,78.60
2023-01-30T09:12:08.893Z,79.87
2023-01-30T09:13:12.588Z,79.15
2023-01-30T09:14:20.831Z,79.69
2023-01-30T09:15:23.254Z,79.65
2023-01-30T09:16:26.811Z,79.58
2023-01-30T09:17:30.288Z,79.25
2023-01-30T09:18:36.442Z,79.16
2023-01-30T09:19:40.443Z,79.81
2023-01-30T09:20:44.045Z,80.34
2023-01-30T09:21:50.197Z,80.46
2023-01-30T09:22:53.521Z,79.74
2023-01-30T09:23:56.232Z,79.10
2023-01-30T09:25:01.609Z,78.74
2023-01-30T09:26:04.597Z,78.40
2023-01-30T09:27:07.781Z,78.84
2023-01-30T09:28:10.360Z,79.06
2023-01-30T09:29:14.697Z,79.87
2023-01-30T09:30:19.013Z,79.87
2023-01-30T09:31:23.260Z,80.48
2023-01-30T09:32:30.279Z,80.34
2023-01-30T09:33:33.508Z,80.29
2023-01-30T09:34:36.919Z,80.12
2023-01-30T09:35:40.135Z,79.33
2023-01-30T09:36:45.000Z,79.35
2023-01-30T09:37:49.219Z,78.06
2023-01-30T09:38:52.507Z,78.45
2023-01-30T09:39:56.218Z,78.88
2023-01-30T09:41:01.510Z,79.22
2023-01-30T09:42:07.814Z,79.21
2023-01-30T09:43:12.199Z,78.64
2023-01-30T09:44:29.237Z,77.62
2023-01-30T09:45:37.663Z,78.21
2023-01-30T09:46:45.515Z,78.04
2023-01-30T09:48:08.699Z,79.04
2023-01-30T09:49:15.969Z,79.60
2023-01-30T09:50:30.015Z,79.72
2023-01-30T09:51:37.160Z,79.47
2023-01-30T09:52:59.325Z,80.25
2023-01-30T09:54:09.671Z,80.22
2023-01-30T09:55:27.892Z,80.00
2023-01-30T09:56:30.781Z,79.84
2023-01-30T09:57:35.343Z,80.00
2023-01-30T09:58:40.570Z,79.68
2023-01-30T09:59:59.785Z,80.09
2023-01-30T10:01:04.773Z,81.84
2023-01-30T10:02:15.267Z,82.25
2023-01-30T10:03:20.739Z,82.01
2023-01-30T10:04:25.959Z,81.66
2023-01-30T10:05:35.204Z,81.09
2023-01-30T10:06:40.338Z,80.55
2023-01-30T10:07:46.228Z,81.04
2023-01-30T10:08:55.076Z,80.60
2023-01-30T10:10:01.131Z,81.04
2023-01-30T10:11:10.737Z,82.36
2023-01-30T10:12:17.183Z,82.24
2023-01-30T10:13:23.693Z,81.88
2023-01-30T10:14:44.248Z,81.54
2023-01-30T10:16:06.379Z,81.28
2023-01-30T10:17:27.413Z,80.29
2023-01-30T10:18:32.699Z,80.49
2023-01-30T10:19:36.938Z,80.99
2023-01-30T10:20:59.127Z,81.60
2023-01-30T10:22:11.306Z,82.29
2023-01-30T10:23:16.058Z,81.61
2023-01-30T10:24:33.035Z,81.12
2023-01-30T10:25:37.577Z,80.86
2023-01-30T10:26:42.877Z,81.33
2023-01-30T10:27:55.194Z,80.75
2023-01-30T10:29:16.303Z,80.49
2023-01-30T10:30:21.253Z,81.08
2023-01-30T10:31:26.909Z,81.46
2023-01-30T10:32:32.772Z,81.71
2023-01-30T10:33:40.767Z,81.04
2023-01-30T10:34:45.776Z,80.33
2023-01-30T10:35:49.853Z,80.35
2023-01-30T10:36:53.999Z,80.93
2023-01-30T10:38:20.656Z,80.92
2023-01-30T10:39:28.369Z,79.96
2023-01-30T10:40:33.754Z,80.32
2023-01-30T10:41:39.386Z,80.04
2023-01-30T10:42:44.743Z,79.27
2023-01-30T10:43:52.557Z,79.76
2023-01-30T10:44:58.955Z,79.61
2023-01-30T10:46:17.059Z,79.75
2023-01-30T10:47:46.303Z,80.07
2023-01-30T10:48:52.712Z,79.70
2023-01-30T10:49:59.756Z,79.39
2023-01-30T10:51:08.026Z,79.77
2023-01-30T10:52:13.369Z,79.75
2023-01-30T10:53:20.007Z,79.87
2023-01-30T10:54:27.572Z,79.73
2023-01-30T10:55:40.269Z,80.89
2023-01-30T10:56:52.008Z,81.03
2023-01-30T10:58:10.153Z,80.24
2023-01-30T10:59:18.045Z,80.30
2023-01-30T11:00:29.385Z,80.38
2023-01-30T11:01:34.574Z,80.14
2023-01-30T11:02:39.961Z,81.20
2023-01-30T11:03:55.496Z,80.43
2023-01-30T11:05:00.959Z,79.81
2023-01-30T11:06:05.712Z,79.43
2023-01-30T11:07:09.743Z,80.17
2023-01-30T11:09:39.106Z,79.71
2023-01-30T11:10:42.383Z,79.74
2023-01-30T11:11:46.538Z,79.73
2023-01-30T11:12:51.524Z,80.30
2023-01-30T11:14:07.692Z,79.83
2023-01-30T11:15:12.715Z,79.15
2023-01-30T11:16:16.573Z,78.52
2023-01-30T11:17:21.182Z,80.25
2023-01-30T11:19:35.401Z,80.30
2023-01-30T11:20:41.399Z,80.18
2023-01-30T11:21:46.167Z,80.16
2023-01-30T11:22:59.953Z,80.19
2023-01-30T11:25:21.170Z,80.69
2023-01-30T11:26:34.746Z,80.27
2023-01-30T11:27:33.203Z,79.74
2023-01-30T11:28:38.536Z,78.73
2023-01-30T11:29:42.239Z,78.35
2023-01-30T11:30:47.237Z,78.79
2023-01-30T11:31:51.743Z,78.11
2023-01-30T11:32:57.293Z,79.24
2023-01-30T11:34:01.924Z,78.75
2023-01-30T11:35:07.295Z,77.76
2023-01-30T11:36:15.633Z,79.06
2023-01-30T11:37:27.043Z,80.21
2023-01-30T11:38:31.380Z,80.09
2023-01-30T11:39:35.853Z,80.72
2023-01-30T11:40:40.488Z,81.37
2023-01-30T11:41:45.478Z,81.55
2023-01-30T11:42:50.731Z,81.19
2023-01-30T11:43:55.283Z,82.24
2023-01-30T11:45:16.811Z,82.54
2023-01-30T11:46:09.969Z,82.16
2023-01-30T11:47:15.290Z,82.16
2023-01-30T11:48:33.129Z,82.62
2023-01-30T11:49:48.151Z,83.13
2023-01-30T11:50:40.870Z,82.49
2023-01-30T11:51:45.036Z,83.41
2023-01-30T11:52:48.747Z,83.56
2023-01-30T11:53:54.991Z,82.62
2023-01-30T11:55:04.912Z,82.14
2023-01-30T11:56:24.377Z,82.14
2023-01-30T11:57:28.107Z,82.64
2023-01-30T11:58:33.395Z,82.30
2023-01-30T11:59:38.245Z,82.10
2023-01-30T12:00:43.216Z,82.49
2023-01-30T12:01:46.875Z,82.81
2023-01-30T12:02:54.760Z,82.62
2023-01-30T12:03:58.741Z,82.33
2023-01-30T12:05:04.146Z,82.01
2023-01-30T12:06:07.841Z,82.30
2023-01-30T12:07:21.995Z,82.66
2023-01-30T12:08:40.487Z,83.27
2023-01-30T12:09:33.914Z,83.90
2023-01-30T12:10:38.468Z,83.39
2023-01-30T12:11:46.709Z,84.09
2023-01-30T12:12:52.346Z,83.63
2023-01-30T12:13:59.116Z,83.30
2023-01-30T12:15:03.773Z,83.04
2023-01-30T12:16:21.821Z,83.10
2023-01-30T12:17:31.142Z,82.75
2023-01-30T12:18:41.963Z,82.98
2023-01-30T12:19:53.186Z,83.66
2023-01-30T12:20:58.272Z,83.05
2023-01-30T12:22:10.729Z,82.54
2023-01-30T12:23:27.307Z,83.73
2023-01-30T12:24:53.265Z,82.86
2023-01-30T12:26:16.913Z,83.77
2023-01-30T12:27:23.365Z,83.70
2023-01-30T12:28:29.307Z,83.05
2023-01-30T12:29:35.615Z,83.67
2023-01-30T12:31:44.389Z,83.65
2023-01-30T12:32:47.581Z,83.58
2023-01-30T12:33:50.586Z,84.04
2023-01-30T12:34:54.720Z,82.83
2023-01-30T12:35:59.246Z,81.83
2023-01-30T12:37:03.475Z,81.68
2023-01-30T12:38:12.263Z,81.32
2023-01-30T12:39:16.435Z,82.73
2023-01-30T12:40:38.126Z,83.10
2023-01-30T12:41:43.511Z,82.60
2023-01-30T12:42:55.920Z,82.07
2023-01-30T12:44:03.530Z,81.30
2023-01-30T12:45:09.899Z,81.56
2023-01-30T12:46:28.946Z,81.75
2023-01-30T12:47:36.676Z,81.65
2023-01-30T12:49:13.486Z,82.08
2023-01-30T12:50:06.534Z,82.59
2023-01-30T12:51:23.617Z,81.87
2023-01-30T12:52:45.808Z,82.27
2023-01-30T12:53:49.951Z,82.50
2023-01-30T12:55:01.073Z,82.19
2023-01-30T12:56:06.141Z,82.17
2023-01-30T12:57:17.062Z,83.57
2023-01-30T12:58:28.970Z,84.05
2023-01-30T12:59:33.954Z,82.79
2023-01-30T13:00:46.580Z,82.68
2023-01-30T13:01:51.889Z,82.79
2023-01-30T13:03:03.179Z,82.66
2023-01-30T13:04:22.267Z,82.60
2023-01-30T13:05:38.115Z,81.95
2023-01-30T13:06:59.052Z,82.37
2023-01-30T13:08:07.999Z,82.21
2023-01-30T13:09:14.107Z,82.46
2023-01-30T13:10:19.453Z,83.55
2023-01-30T13:11:39.821Z,83.81
2023-01-30T16:46:17.646Z,87.35
2023-01-30T16:47:28.878Z,87.17
2023-01-30T16:50:01.945Z,86.91
2023-01-30T16:51:08.005Z,87.04
2023-01-30T16:52:24.477Z,87.61
2023-01-30T16:54:41.953Z,86.40
2023-01-30T16:56:04.464Z,86.93
2023-01-30T16:57:08.043Z,87.66
2023-01-30T16:58:12.067Z,86.78
2023-01-30T16:59:17.140Z,86.39
2023-01-30T17:00:22.573Z,86.81
2023-01-30T17:01:27.083Z,86.62
2023-01-30T17:02:36.137Z,86.44
2023-01-30T17:03:40.582Z,86.70
2023-01-30T17:04:43.453Z,86.84
2023-01-30T17:05:49.706Z,86.95
2023-01-30T17:06:54.335Z,87.16
2023-01-30T17:07:58.104Z,87.77
2023-01-30T17:09:03.031Z,87.72
2023-01-30T17:10:06.822Z,87.46
2023-01-30T17:11:10.223Z,87.65
2023-01-30T17:12:32.946Z,87.45
2023-01-30T17:13:43.036Z,88.15
2023-01-30T17:14:46.454Z,88.02
2023-01-30T17:15:49.006Z,89.14
2023-01-30T17:17:07.468Z,89.42
2023-01-30T17:18:10.213Z,90.08
2023-01-30T17:19:16.448Z,90.63
2023-01-30T17:20:20.565Z,90.11
2023-01-30T17:21:24.060Z,90.46
2023-01-30T17:22:29.417Z,90.41
2023-01-30T17:23:32.873Z,89.99
2023-01-30T17:24:36.883Z,89.94
2023-01-30T17:25:41.000Z,89.81
2023-01-30T17:26:44.254Z,89.79
2023-01-30T17:27:49.068Z,89.92
2023-01-30T17:28:52.471Z,90.25
2023-01-30T17:29:55.997Z,90.14
2023-01-30T17:30:59.367Z,90.27
2023-01-30T17:32:04.695Z,90.00
2023-01-30T17:33:09.310Z,89.91
2023-01-30T17:34:15.504Z,89.54
2023-01-30T17:35:19.242Z,88.85
2023-01-30T17:36:24.880Z,91.01
2023-01-30T17:37:28.353Z,90.99
2023-01-30T17:38:32.272Z,90.30
2023-01-30T17:39:36.604Z,89.29
2023-01-30T17:40:40.013Z,89.29
2023-01-30T17:41:44.895Z,89.33
2023-01-30T17:42:50.220Z,89.25
2023-01-30T17:43:53.759Z,89.07
2023-01-30T17:45:00.613Z,88.77
2023-01-30T17:46:04.350Z,89.20
2023-01-30T17:47:09.192Z,90.05
2023-01-30T17:48:14.612Z,90.57
2023-01-30T17:49:18.812Z,90.47
2023-01-30T17:50:22.261Z,89.76
2023-01-30T17:51:25.489Z,90.98
2023-01-30T17:52:29.586Z,90.02
2023-01-30T17:53:32.965Z,90.44